TE59 weather

Holler Heliport
Bulverde, Texas, United States

Public forecast

Using degrees Fahrenheit for public forecast. Weather courtesy of forecast.io.

METAR (pilot weather report)

Closest report is Randolph Air Force Base, 17.6 nm (32.6 km) SSE. Retrieved 2019/09/23 15:16 UTC (0 seconds ago):

KRND 231516Z AUTO 22005KT 10SM SCT028 28/23 A3007 RMK AO2 SLP174 $

TAF (pilot weather forecast)

Closest forecast is Randolph Air Force Base, 17.6 nm (32.6 km) SSE. Retrieved 2019/09/23 12:00 UTC (3 hours ago):

TAF KRND 231250Z 2312/2415 16006KT 9999 SCT010 QNH3001INS TEMPO 2312/2314 BKN007 BECMG 2315/2316 18006KT 9999 SCT020 QNH2995INS BECMG 2323/2324 13006KT 9999 BKN060 QNH2996INS BECMG 2408/2409 VRB06KT 9999 BKN010 QNH2998INS BECMG 2414/2415 18006KT 9999 SCT030 QNH3000INS TX34/2321Z TN21/2312Z